首页
METAR-TAF:

METAR-TAF

机场 :

贝鲁特, 黎巴嫩

纬度: 33-49N, 经度: 035-29E, 海拔: 29米

当前天气观测

该预报发布于29分钟前的14:00 UTC
风速23节,风向西南
温度 18°C
湿度 59%
气压 1010 hPa
能見度: 5000
少量云层高于3600英尺
少量云层高于8000英尺

METAR: OLBA 221400Z 22023KT 5000 HZ FEW036 FEW080 18/10 Q1010 NOSIG

时间: 16:29 (14:29 UTC)

预报

该预报发布于4小时和29分钟前的10:00 UTC
预报有效从22日的 12点(UTC)到 23日的 18点(UTC)
风速20节,风向西南,有时为30节阵风
能見度: 8000
少量云层高于2600英尺
成为
从 22日的 18点(UTC)到 22日的 21点(UTC)
风速20节,风向,有时为30节阵风
散云层高于2600英尺
散云层高于7000英尺
短暂存在
从 22日的 18点(UTC)到 22日的 24点(UTC)
小雨
成为
从 23日的 00点(UTC)到 23日的 03点(UTC)
风速25节,风向西南,有时为40节阵风
能見度: 7000
多云层高于2300英尺
短暂存在
从 23日的 00点(UTC)到 23日的 18点(UTC)
能見度: 4000
少量云层高于2000英尺, 积雨云.
阴天层高于2300英尺

TAF: OLBA 221000Z 2212/2318 22020G30KT 8000 FEW026 BECMG 2218/2221 19020G30KT SCT026 SCT070 TEMPO 2218/2224 -RA BECMG 2300/2303 22025G40KT 7000 RA BKN023 TEMPO 2300/2318 4000 TSSHRA FEW020CB OVC023

超过4000个机场的气象观测和天气预报(METAR&TAF报告)。

可查询的气象台以黄色和红色小点在地图上表示。

将鼠标移到小点上方,可查看气象台名称。

然后点击查看天气观测和预报。

如需切换地图:点击带黑十字的绿色按钮放大地图;点击带横线的绿色按钮缩小地图;或者点击绿色箭头查看邻近地区的地图。


METAR-TAF: